createdAt,value
2019-02-17T00:00:06.496Z,10.00
2019-02-17T00:02:36.399Z,7.10
2019-02-17T00:05:06.409Z,6.60
2019-02-17T00:07:36.770Z,8.97
2019-02-17T00:10:11.737Z,9.37
2019-02-17T00:12:42.402Z,6.40
2019-02-17T00:15:12.644Z,12.27
2019-02-17T00:17:42.656Z,7.93
2019-02-17T00:20:13.717Z,10.83
2019-02-17T00:22:43.677Z,6.90
2019-02-17T00:25:13.673Z,5.17
2019-02-17T00:27:43.543Z,9.27
2019-02-17T00:30:13.551Z,10.57
2019-02-17T00:32:43.864Z,7.77
2019-02-17T00:35:14.078Z,7.47
2019-02-17T00:37:44.149Z,4.83
2019-02-17T00:40:33.288Z,5.90
2019-02-17T00:43:15.500Z,5.63
2019-02-17T00:45:56.814Z,8.20
2019-02-17T00:48:37.004Z,7.43
2019-02-17T00:51:18.686Z,4.77
2019-02-17T00:54:00.032Z,4.87
2019-02-17T00:56:41.663Z,4.07
2019-02-17T00:59:23.500Z,5.90
2019-02-17T01:02:05.273Z,6.57
2019-02-17T01:04:47.042Z,10.37
2019-02-17T01:07:28.959Z,6.87
2019-02-17T01:10:10.759Z,5.93
2019-02-17T01:12:52.157Z,7.27
2019-02-17T01:15:22.057Z,6.20
2019-02-17T01:18:11.147Z,7.30
2019-02-17T01:21:12.152Z,7.20
2019-02-17T01:23:53.512Z,6.23
2019-02-17T01:26:23.433Z,4.80
2019-02-17T01:29:20.182Z,4.63
2019-02-17T01:32:22.973Z,6.97
2019-02-17T01:35:04.957Z,10.37
2019-02-17T01:37:46.458Z,5.83
2019-02-17T01:40:28.596Z,6.77
2019-02-17T01:43:08.779Z,7.50
2019-02-17T01:45:50.305Z,7.97
2019-02-17T01:48:32.272Z,5.83
2019-02-17T01:51:13.825Z,7.53
2019-02-17T01:53:55.308Z,6.07
2019-02-17T01:56:37.533Z,9.83
2019-02-17T01:59:18.957Z,7.23
2019-02-17T02:02:01.152Z,10.63
2019-02-17T02:04:42.660Z,6.90
2019-02-17T02:07:12.657Z,7.23
2019-02-17T02:09:55.122Z,4.80
2019-02-17T02:12:39.951Z,5.80
2019-02-17T02:15:21.491Z,5.53
2019-02-17T02:18:03.108Z,5.03
2019-02-17T02:20:44.960Z,6.17
2019-02-17T02:23:27.095Z,3.57
2019-02-17T02:26:08.883Z,8.63
2019-02-17T02:28:50.320Z,5.90
2019-02-17T02:31:20.214Z,4.37
2019-02-17T02:34:11.035Z,11.30
2019-02-17T02:37:12.233Z,4.87
2019-02-17T02:39:53.669Z,4.33
2019-02-17T02:42:35.913Z,3.50
2019-02-17T02:45:18.246Z,5.50
2019-02-17T02:47:59.930Z,4.13
2019-02-17T02:53:41.080Z,7.60
2019-02-17T02:56:23.033Z,9.00
2019-02-17T02:58:52.896Z,8.97
2019-02-17T03:01:42.044Z,6.50
2019-02-17T03:04:11.970Z,6.03
2019-02-17T03:10:28.922Z,6.70
2019-02-17T03:13:10.659Z,7.17
2019-02-17T03:15:52.304Z,10.43
2019-02-17T03:18:33.942Z,11.03
2019-02-17T03:21:18.349Z,10.50
2019-02-17T03:23:48.232Z,5.87
2019-02-17T03:26:56.845Z,6.30
2019-02-17T03:29:38.890Z,8.07
2019-02-17T03:32:20.698Z,5.37
2019-02-17T03:35:03.108Z,5.17
2019-02-17T03:37:45.245Z,5.63
2019-02-17T03:40:27.392Z,4.00
2019-02-17T03:43:16.306Z,10.70
2019-02-17T03:46:05.743Z,10.03
2019-02-17T03:48:47.265Z,11.80
2019-02-17T03:51:28.796Z,10.83
2019-02-17T03:54:11.087Z,11.27
2019-02-17T03:56:53.228Z,8.70
2019-02-17T03:59:35.030Z,11.57
2019-02-17T04:02:16.453Z,9.40
2019-02-17T04:04:58.671Z,9.17
2019-02-17T04:07:40.230Z,5.57
2019-02-17T04:10:22.096Z,10.20
2019-02-17T04:13:02.345Z,7.73
2019-02-17T04:15:51.480Z,11.57
2019-02-17T04:18:33.512Z,8.70
2019-02-17T04:21:14.971Z,10.37
2019-02-17T04:23:56.596Z,7.10
2019-02-17T04:26:38.068Z,9.43
2019-02-17T04:29:19.554Z,5.67
2019-02-17T04:31:59.785Z,6.83
2019-02-17T04:34:42.073Z,9.97
2019-02-17T04:37:23.687Z,6.93
2019-02-17T04:40:06.021Z,11.37
2019-02-17T04:42:47.781Z,9.07
2019-02-17T04:45:30.075Z,6.57
2019-02-17T04:48:11.486Z,7.27
2019-02-17T04:50:53.207Z,6.13
2019-02-17T04:53:35.143Z,6.57
2019-02-17T04:59:07.033Z,8.23
2019-02-17T05:01:48.817Z,6.23
2019-02-17T05:04:18.696Z,11.53
2019-02-17T05:07:07.865Z,11.47
2019-02-17T05:10:09.025Z,11.33
2019-02-17T05:12:51.211Z,12.77
2019-02-17T05:15:33.314Z,10.33
2019-02-17T05:18:14.738Z,8.40
2019-02-17T05:20:56.505Z,7.57
2019-02-17T05:23:37.933Z,6.57
2019-02-17T05:26:19.352Z,5.97
2019-02-17T05:29:00.803Z,5.07
2019-02-17T05:31:45.672Z,7.03
2019-02-17T05:34:27.849Z,7.57
2019-02-17T05:37:09.321Z,5.80
2019-02-17T05:39:39.373Z,8.57
2019-02-17T05:42:28.462Z,9.73
2019-02-17T05:45:09.991Z,5.57
2019-02-17T05:47:52.168Z,4.97
2019-02-17T05:50:34.068Z,9.90
2019-02-17T05:53:16.272Z,8.27
2019-02-17T05:55:57.928Z,7.37
2019-02-17T05:58:39.659Z,10.57
2019-02-17T06:01:21.061Z,8.10
2019-02-17T06:04:03.279Z,11.63
2019-02-17T06:06:45.537Z,9.63
2019-02-17T06:09:26.937Z,12.03
2019-02-17T06:11:56.793Z,11.03
2019-02-17T06:14:27.144Z,9.03
2019-02-17T06:17:16.305Z,8.87
2019-02-17T06:19:58.483Z,8.53
2019-02-17T06:22:42.013Z,6.97
2019-02-17T06:25:23.653Z,8.90
2019-02-17T06:28:05.353Z,5.90
2019-02-17T06:30:35.304Z,7.37
2019-02-17T06:33:24.379Z,8.57
2019-02-17T06:36:06.583Z,8.87
2019-02-17T06:38:48.858Z,7.17
2019-02-17T06:41:31.104Z,7.53
2019-02-17T06:46:59.550Z,9.63
2019-02-17T06:49:40.893Z,8.70
2019-02-17T06:52:22.257Z,5.80
2019-02-17T06:55:22.780Z,11.23
2019-02-17T06:58:04.986Z,5.30
2019-02-17T07:00:49.604Z,4.27
2019-02-17T07:03:31.199Z,4.57
2019-02-17T07:09:18.125Z,6.43
2019-02-17T07:15:22.019Z,6.47
2019-02-17T07:18:03.885Z,4.23
2019-02-17T07:20:46.082Z,4.20
2019-02-17T07:23:28.419Z,5.17
2019-02-17T07:26:10.679Z,6.37
2019-02-17T07:28:52.427Z,5.10
2019-02-17T07:31:22.708Z,4.37
2019-02-17T07:34:11.826Z,4.63
2019-02-17T07:36:53.402Z,3.73
2019-02-17T07:39:35.679Z,3.83
2019-02-17T07:42:17.227Z,4.93
2019-02-17T07:44:47.060Z,6.37
2019-02-17T07:47:36.209Z,5.50
2019-02-17T07:50:25.520Z,4.67
2019-02-17T07:53:14.585Z,8.23
2019-02-17T07:56:16.156Z,8.43
2019-02-17T07:58:57.678Z,8.43
2019-02-17T08:01:27.536Z,8.87
2019-02-17T08:04:16.584Z,9.80
2019-02-17T08:06:58.124Z,9.97
2019-02-17T08:09:39.664Z,4.43
2019-02-17T08:12:21.140Z,6.70
2019-02-17T08:15:02.595Z,9.27
2019-02-17T08:17:44.442Z,5.57
2019-02-17T08:20:26.205Z,3.87
2019-02-17T08:22:56.087Z,3.67
2019-02-17T08:25:45.144Z,4.47
2019-02-17T08:28:34.224Z,4.73
2019-02-17T08:31:04.240Z,3.27
2019-02-17T08:33:34.071Z,3.87
2019-02-17T08:36:23.149Z,3.30
2019-02-17T08:39:12.209Z,3.10
2019-02-17T08:41:54.113Z,3.30
2019-02-17T08:44:35.456Z,4.43
2019-02-17T08:47:17.727Z,6.80
2019-02-17T08:50:00.214Z,4.30
2019-02-17T08:52:30.277Z,3.70
2019-02-17T08:55:00.329Z,4.43
2019-02-17T08:57:30.211Z,3.97
2019-02-17T09:00:00.049Z,6.93
2019-02-17T09:02:29.910Z,10.47
2019-02-17T09:04:59.815Z,7.27
2019-02-17T09:07:29.673Z,6.47
2019-02-17T09:09:59.511Z,8.27
2019-02-17T09:12:29.428Z,7.73
2019-02-17T09:14:59.267Z,7.67
2019-02-17T09:17:29.233Z,7.90
2019-02-17T09:19:59.101Z,6.33
2019-02-17T09:22:28.959Z,8.60
2019-02-17T09:24:58.808Z,5.30
2019-02-17T09:27:28.673Z,11.70
2019-02-17T09:29:58.611Z,15.57
2019-02-17T09:32:28.712Z,11.90
2019-02-17T09:34:58.560Z,11.37
2019-02-17T09:37:28.416Z,9.40
2019-02-17T09:39:58.256Z,10.17
2019-02-17T09:42:28.192Z,7.57
2019-02-17T09:44:58.086Z,8.40
2019-02-17T09:47:28.015Z,7.53
2019-02-17T09:49:57.859Z,8.57
2019-02-17T09:52:27.737Z,8.13
2019-02-17T09:54:57.800Z,8.97
2019-02-17T09:57:27.662Z,7.37
2019-02-17T09:59:57.500Z,7.60
2019-02-17T10:02:27.381Z,10.33
2019-02-17T10:04:57.292Z,8.57
2019-02-17T10:07:27.160Z,8.47
2019-02-17T10:09:57.068Z,8.93
2019-02-17T10:12:26.939Z,8.37
2019-02-17T10:14:56.784Z,8.17
2019-02-17T10:17:26.647Z,9.57
2019-02-17T10:19:56.510Z,9.33
2019-02-17T10:22:26.722Z,9.87
2019-02-17T10:24:56.852Z,7.47
2019-02-17T10:27:26.768Z,7.47
2019-02-17T10:29:57.124Z,6.53
2019-02-17T10:32:36.471Z,7.80
2019-02-17T10:34:59.554Z,6.03
2019-02-17T10:37:29.495Z,6.30
2019-02-17T10:39:59.420Z,6.17
2019-02-17T10:42:29.335Z,6.60
2019-02-17T10:44:59.250Z,5.67
2019-02-17T10:47:29.164Z,6.63
2019-02-17T10:49:59.017Z,6.77
2019-02-17T10:52:28.861Z,5.50
2019-02-17T10:54:58.875Z,6.13
2019-02-17T10:57:29.769Z,4.67
2019-02-17T10:59:59.948Z,5.00
2019-02-17T11:02:29.877Z,5.80
2019-02-17T11:04:59.824Z,5.17
2019-02-17T11:07:29.672Z,4.87
2019-02-17T11:09:59.579Z,4.77
2019-02-17T11:12:29.790Z,5.23
2019-02-17T11:14:59.725Z,6.80
2019-02-17T11:17:29.600Z,5.30
2019-02-17T11:19:59.656Z,5.43
2019-02-17T11:22:29.572Z,5.80
2019-02-17T11:24:59.664Z,5.07
2019-02-17T11:27:29.748Z,4.47
2019-02-17T11:30:02.669Z,4.87
2019-02-17T11:32:32.622Z,5.10
2019-02-17T11:35:02.709Z,4.63
2019-02-17T11:37:32.615Z,4.13
2019-02-17T11:40:02.729Z,4.97
2019-02-17T11:42:32.609Z,4.43
2019-02-17T11:45:02.563Z,5.57
2019-02-17T11:47:32.429Z,4.57
2019-02-17T11:50:02.404Z,3.87
2019-02-17T11:52:32.319Z,5.10
2019-02-17T11:55:03.461Z,4.07
2019-02-17T11:57:33.308Z,4.47
2019-02-17T12:00:03.650Z,4.33
2019-02-17T12:02:33.626Z,3.10
2019-02-17T12:05:05.290Z,3.90
2019-02-17T12:07:35.310Z,3.47
2019-02-17T12:10:05.686Z,3.90
2019-02-17T12:12:35.703Z,3.00
2019-02-17T12:15:06.176Z,2.30
2019-02-17T12:17:36.163Z,2.97
2019-02-17T12:20:29.876Z,3.20
2019-02-17T12:23:04.504Z,2.30
2019-02-17T12:25:53.663Z,2.53
2019-02-17T12:28:37.841Z,2.90
2019-02-17T12:31:07.885Z,3.30
2019-02-17T12:33:37.747Z,3.77
2019-02-17T12:36:07.760Z,3.40
2019-02-17T12:38:37.695Z,2.50
2019-02-17T12:41:07.825Z,2.83
2019-02-17T12:43:37.811Z,5.43
2019-02-17T12:46:07.800Z,4.53
2019-02-17T12:48:39.752Z,3.90
2019-02-17T12:51:09.448Z,4.70
2019-02-17T12:53:39.291Z,4.27
2019-02-17T12:56:09.323Z,3.37
2019-02-17T12:58:39.263Z,3.30
2019-02-17T13:01:09.692Z,4.23
2019-02-17T13:03:39.592Z,3.40
2019-02-17T13:06:09.688Z,3.87
2019-02-17T13:08:39.691Z,2.80
2019-02-17T13:11:09.876Z,2.40
2019-02-17T13:13:39.771Z,2.57
2019-02-17T13:16:09.827Z,3.17
2019-02-17T13:18:39.924Z,2.53
2019-02-17T13:21:09.871Z,2.73
2019-02-17T13:23:39.792Z,3.80
2019-02-17T13:26:29.072Z,2.13
2019-02-17T13:29:18.199Z,2.50
2019-02-17T13:31:58.436Z,3.03
2019-02-17T13:37:57.816Z,2.40
2019-02-17T13:40:38.280Z,2.80
2019-02-17T13:43:27.367Z,2.47
2019-02-17T13:46:10.386Z,3.97
2019-02-17T13:48:52.538Z,2.50
2019-02-17T13:51:34.885Z,4.97
2019-02-17T13:54:16.253Z,3.10
2019-02-17T13:56:57.780Z,2.43
2019-02-17T13:59:39.560Z,2.83
2019-02-17T14:02:22.056Z,3.70
2019-02-17T14:05:04.396Z,2.90
2019-02-17T14:07:46.090Z,3.60
2019-02-17T14:10:21.496Z,2.75
2019-02-17T14:16:11.348Z,3.03
2019-02-17T14:18:53.780Z,2.83
2019-02-17T14:21:35.816Z,3.10
2019-02-17T14:24:17.388Z,3.27
2019-02-17T14:26:59.844Z,2.70
2019-02-17T14:29:41.803Z,2.63
2019-02-17T14:32:23.500Z,2.20
2019-02-17T14:35:05.639Z,4.20
2019-02-17T14:37:48.012Z,2.33
2019-02-17T14:40:30.303Z,5.00
2019-02-17T14:43:11.684Z,2.57
2019-02-17T14:45:54.044Z,3.00
2019-02-17T14:48:35.535Z,3.37
2019-02-17T14:51:17.042Z,2.53
2019-02-17T14:53:58.487Z,3.43
2019-02-17T14:56:40.589Z,3.70
2019-02-17T14:59:22.072Z,3.23
2019-02-17T15:02:04.392Z,3.20
2019-02-17T15:04:46.462Z,5.53
2019-02-17T15:07:28.536Z,3.97
2019-02-17T15:10:10.448Z,4.27
2019-02-17T15:12:52.793Z,4.30
2019-02-17T15:15:34.663Z,4.53
2019-02-17T15:18:17.075Z,4.07
2019-02-17T15:20:59.569Z,4.77
2019-02-17T15:23:41.339Z,4.80
2019-02-17T15:26:23.176Z,4.93
2019-02-17T15:29:04.599Z,4.80
2019-02-17T15:31:46.317Z,3.97
2019-02-17T15:34:18.944Z,4.17
2019-02-17T15:37:27.307Z,5.43
2019-02-17T15:40:09.178Z,4.37
2019-02-17T15:42:51.155Z,3.87
2019-02-17T15:45:33.492Z,4.67
2019-02-17T15:48:15.244Z,5.43
2019-02-17T15:51:06.063Z,5.07
2019-02-17T15:53:41.056Z,4.47
2019-02-17T15:56:23.407Z,4.00
2019-02-17T15:59:05.418Z,4.40
2019-02-17T16:01:48.087Z,3.97
2019-02-17T16:04:29.780Z,4.93
2019-02-17T16:07:11.994Z,3.93
2019-02-17T16:09:54.103Z,5.37
2019-02-17T16:12:36.289Z,4.43
2019-02-17T16:15:18.485Z,4.63
2019-02-17T16:18:01.964Z,3.93
2019-02-17T16:20:43.737Z,3.87
2019-02-17T16:23:26.483Z,4.60
2019-02-17T16:26:08.346Z,4.83
2019-02-17T16:28:49.852Z,4.90
2019-02-17T16:31:31.383Z,7.07
2019-02-17T16:34:13.770Z,5.33
2019-02-17T16:36:55.685Z,6.00
2019-02-17T16:39:37.776Z,6.93
2019-02-17T16:42:19.928Z,5.57
2019-02-17T16:45:00.823Z,7.17
2019-02-17T16:47:42.689Z,6.13
2019-02-17T16:50:24.207Z,7.73
2019-02-17T16:53:06.736Z,6.47
2019-02-17T16:55:48.173Z,6.93
2019-02-17T17:01:29.345Z,5.70
2019-02-17T17:04:11.570Z,6.37
2019-02-17T17:06:53.388Z,6.63
2019-02-17T17:09:35.096Z,7.70
2019-02-17T17:12:17.577Z,8.80
2019-02-17T17:15:00.021Z,7.03
2019-02-17T17:17:40.549Z,7.00
2019-02-17T17:20:22.884Z,7.57
2019-02-17T17:23:05.350Z,7.03
2019-02-17T17:25:47.745Z,8.10
2019-02-17T17:28:29.623Z,7.53
2019-02-17T17:31:11.896Z,6.53
2019-02-17T17:33:54.221Z,9.30
2019-02-17T17:36:36.105Z,8.33
2019-02-17T17:39:18.244Z,6.67
2019-02-17T17:42:00.168Z,7.40
2019-02-17T17:44:42.501Z,8.40
2019-02-17T17:47:24.796Z,7.77
2019-02-17T17:50:06.473Z,8.13
2019-02-17T17:52:49.513Z,6.87
2019-02-17T17:55:29.925Z,7.13
2019-02-17T17:58:12.171Z,8.73
2019-02-17T18:00:54.089Z,7.13
2019-02-17T18:03:35.965Z,8.07
2019-02-17T18:06:18.127Z,8.43
2019-02-17T18:08:59.748Z,10.27
2019-02-17T18:11:41.595Z,8.70
2019-02-17T18:14:23.124Z,8.70
2019-02-17T18:17:05.436Z,8.87
2019-02-17T18:19:47.952Z,8.30
2019-02-17T18:22:29.388Z,8.00
2019-02-17T18:25:11.560Z,8.80
2019-02-17T18:27:53.751Z,8.00
2019-02-17T18:30:35.832Z,7.70
2019-02-17T18:33:17.543Z,8.23
2019-02-17T18:35:59.042Z,7.50
2019-02-17T18:38:41.195Z,9.23
2019-02-17T18:41:23.598Z,8.07
2019-02-17T18:44:05.181Z,8.73
2019-02-17T18:46:48.042Z,8.43
2019-02-17T18:49:30.484Z,8.23
2019-02-17T18:52:13.933Z,10.63
2019-02-17T18:54:55.543Z,7.53
2019-02-17T18:57:50.022Z,8.17
2019-02-17T19:00:49.154Z,6.90
2019-02-17T19:03:31.163Z,7.07
2019-02-17T19:06:12.180Z,8.90
2019-02-17T19:08:54.341Z,8.67
2019-02-17T19:11:36.087Z,7.13
2019-02-17T19:14:18.813Z,10.03
2019-02-17T19:17:01.015Z,7.53
2019-02-17T19:19:43.892Z,7.23
2019-02-17T19:22:26.530Z,8.07
2019-02-17T19:25:08.888Z,8.17
2019-02-17T19:27:51.282Z,6.77
2019-02-17T19:30:34.088Z,8.57
2019-02-17T19:33:16.062Z,7.00
2019-02-17T19:35:58.050Z,8.43
2019-02-17T19:38:39.973Z,8.57
2019-02-17T19:41:21.823Z,6.83
2019-02-17T19:44:03.968Z,8.20
2019-02-17T19:46:45.322Z,8.77
2019-02-17T19:49:26.781Z,6.90
2019-02-17T19:52:09.096Z,8.03
2019-02-17T19:54:50.837Z,7.90
2019-02-17T19:57:33.078Z,8.10
2019-02-17T20:00:15.971Z,7.83
2019-02-17T20:03:16.650Z,7.87
2019-02-17T20:06:00.883Z,8.47
2019-02-17T20:08:43.033Z,8.60
2019-02-17T20:11:25.208Z,8.23
2019-02-17T20:14:07.397Z,7.90
2019-02-17T20:16:49.745Z,7.67
2019-02-17T20:19:19.696Z,7.77
2019-02-17T20:21:49.742Z,9.73
2019-02-17T20:27:52.842Z,7.83
2019-02-17T20:30:34.994Z,6.80
2019-02-17T20:33:17.003Z,7.73
2019-02-17T20:36:02.878Z,9.70
2019-02-17T20:38:41.845Z,8.50
2019-02-17T20:41:24.290Z,7.90
2019-02-17T20:44:06.385Z,6.63
2019-02-17T20:46:46.686Z,7.00
2019-02-17T20:49:28.876Z,7.10
2019-02-17T20:52:10.672Z,7.57
2019-02-17T20:54:52.762Z,7.27
2019-02-17T20:57:35.361Z,7.17
2019-02-17T21:00:17.307Z,8.03
2019-02-17T21:02:59.424Z,8.33
2019-02-17T21:05:41.840Z,7.00
2019-02-17T21:08:23.890Z,7.17
2019-02-17T21:10:53.852Z,7.27
2019-02-17T21:13:43.055Z,5.93
2019-02-17T21:16:24.645Z,7.70
2019-02-17T21:19:06.917Z,6.43
2019-02-17T21:21:48.429Z,7.03
2019-02-17T21:24:29.963Z,6.57
2019-02-17T21:27:11.512Z,7.60
2019-02-17T21:32:53.275Z,4.63
2019-02-17T21:35:34.739Z,4.53
2019-02-17T21:38:16.305Z,2.73
2019-02-17T21:41:08.790Z,2.90
2019-02-17T21:43:42.041Z,4.13
2019-02-17T21:46:24.283Z,3.60
2019-02-17T21:49:06.473Z,4.03
2019-02-17T21:51:47.908Z,2.93
2019-02-17T21:54:29.757Z,5.27
2019-02-17T21:57:11.185Z,5.07
2019-02-17T21:59:52.596Z,5.77
2019-02-17T22:02:22.571Z,4.20
2019-02-17T22:04:52.400Z,5.27
2019-02-17T22:07:41.557Z,3.77
2019-02-17T22:10:30.693Z,4.23
2019-02-17T22:13:12.292Z,5.90
2019-02-17T22:15:54.539Z,4.27
2019-02-17T22:18:36.832Z,5.60
2019-02-17T22:21:18.364Z,5.63
2019-02-17T22:23:59.768Z,5.17
2019-02-17T22:26:41.176Z,3.97
2019-02-17T22:29:22.658Z,3.07
2019-02-17T22:32:04.063Z,4.90
2019-02-17T22:34:45.777Z,5.00
2019-02-17T22:37:27.453Z,6.27
2019-02-17T22:40:09.167Z,6.23
2019-02-17T22:42:51.418Z,5.07
2019-02-17T22:45:32.897Z,6.50
2019-02-17T22:48:15.192Z,7.73
2019-02-17T22:50:56.535Z,5.53
2019-02-17T22:53:43.745Z,4.57
2019-02-17T22:56:22.457Z,4.57
2019-02-17T22:59:04.416Z,5.30
2019-02-17T23:01:45.920Z,3.57
2019-02-17T23:04:27.390Z,3.17
2019-02-17T23:07:09.049Z,3.90
2019-02-17T23:09:51.228Z,3.77
2019-02-17T23:12:21.124Z,5.23
2019-02-17T23:15:10.261Z,3.63
2019-02-17T23:17:52.215Z,3.57
2019-02-17T23:24:18.825Z,2.90
2019-02-17T23:26:59.095Z,3.80
2019-02-17T23:32:49.607Z,5.80
2019-02-17T23:35:31.497Z,2.50
2019-02-17T23:38:13.480Z,4.13
2019-02-17T23:40:55.389Z,5.20
2019-02-17T23:43:37.334Z,5.63
2019-02-17T23:46:19.156Z,4.80
2019-02-17T23:49:01.417Z,5.97
2019-02-17T23:51:41.548Z,4.93
2019-02-17T23:54:30.586Z,4.80
2019-02-17T23:57:10.825Z,4.03
2019-02-17T23:59:59.875Z,3.47
